KSIY

Details ICAO KSIY
Name Siskiyou Co
Region United States
Timezone America/Los_Angeles (UTC-7.0)
Plans Departing 2
Arriving 2
Stats Elevation 2,648 ft / 807 m (AMSL)
Location 41.781441° -122.468109°
Runways 1
Magnetic Variation 14.347° E
Sunrise 2018-05-24 12:43:38 UTC / 2018-05-24 05:43:38 Local
Sunset 2018-05-25 03:32:43 UTC / 2018-05-24 20:32:43 Local
Advertisement - Login to hide

Runways

ID Width Length Bearing (true) Bearing (mag) Surface Threshold Offset Overrun Length
17 150 ft / 46 m 7,493 ft / 2,284 m 191.03° 176.68° Asphalt 0 ft / 0 m 685 ft / 209 m
35 150 ft / 46 m 7,493 ft / 2,284 m 11.03° 356.68° Asphalt 0 ft / 0 m 1,000 ft / 305 m

Map

Weather


0- 5 10 15 20 25 30 35+ Temperature / ° C

Clouds and Precipitation
Forecast for 2018-05-25 00:00 UTC. Updated 5 hours ago

Ground ~20,000 ft ~40,000 ft Winds

METAR

KSIY 250353Z AUTO 35013G23KT 10SM CLR 21/10 A2996 RMK AO2 SLP138 T02060100

TAF

Not found

Frequencies

Recorded 121.12 MHz ASOS
Unicom 123.00 MHz CTAF/UNICOM
Warning: Do not use this data for real-world aviation or navigation. No guarantee of current accuracy is given.